sensor_id;sensor_type;location;lat;lon;timestamp;temperature;humidity
15328;DHT22;7764;51.430;6.840;2022-09-09T00:02:18;16.10;99.90
15328;DHT22;7764;51.430;6.840;2022-09-09T00:04:52;16.10;99.90
15328;DHT22;7764;51.430;6.840;2022-09-09T00:07:34;16.00;99.90
15328;DHT22;7764;51.430;6.840;2022-09-09T00:10:14;15.90;99.90
15328;DHT22;7764;51.430;6.840;2022-09-09T00:12:51;16.00;99.90
15328;DHT22;7764;51.430;6.840;2022-09-09T00:15:23;15.90;99.90
15328;DHT22;7764;51.430;6.840;2022-09-09T00:17:54;15.90;99.90
15328;DHT22;7764;51.430;6.840;2022-09-09T00:20:28;16.00;99.90
15328;DHT22;7764;51.430;6.840;2022-09-09T00:23:00;16.10;99.90
15328;DHT22;7764;51.430;6.840;2022-09-09T00:25:34;16.00;99.90
15328;DHT22;7764;51.430;6.840;2022-09-09T00:28:04;16.10;99.90
15328;DHT22;7764;51.430;6.840;2022-09-09T00:30:40;16.10;99.90
15328;DHT22;7764;51.430;6.840;2022-09-09T00:33:11;16.10;99.90
15328;DHT22;7764;51.430;6.840;2022-09-09T00:35:42;16.10;99.90
15328;DHT22;7764;51.430;6.840;2022-09-09T00:38:14;16.00;99.90
15328;DHT22;7764;51.430;6.840;2022-09-09T00:40:48;16.10;99.90
15328;DHT22;7764;51.430;6.840;2022-09-09T00:43:26;16.10;99.90
15328;DHT22;7764;51.430;6.840;2022-09-09T00:46:13;16.20;99.90
15328;DHT22;7764;51.430;6.840;2022-09-09T00:48:51;16.20;99.90
15328;DHT22;7764;51.430;6.840;2022-09-09T00:51:25;16.20;99.90
15328;DHT22;7764;51.430;6.840;2022-09-09T00:54:09;16.20;99.90
15328;DHT22;7764;51.430;6.840;2022-09-09T00:56:45;16.20;99.90
15328;DHT22;7764;51.430;6.840;2022-09-09T00:59:24;16.20;99.90
15328;DHT22;7764;51.430;6.840;2022-09-09T01:01:52;16.20;99.90
15328;DHT22;7764;51.430;6.840;2022-09-09T01:04:27;16.10;99.90
15328;DHT22;7764;51.430;6.840;2022-09-09T01:07:03;16.20;99.90
15328;DHT22;7764;51.430;6.840;2022-09-09T01:09:38;16.20;99.90
15328;DHT22;7764;51.430;6.840;2022-09-09T01:12:11;16.10;99.90
15328;DHT22;7764;51.430;6.840;2022-09-09T01:14:42;16.10;99.90
15328;DHT22;7764;51.430;6.840;2022-09-09T01:17:15;16.00;99.90
15328;DHT22;7764;51.430;6.840;2022-09-09T01:19:51;16.00;99.90
15328;DHT22;7764;51.430;6.840;2022-09-09T01:22:28;16.00;99.90
15328;DHT22;7764;51.430;6.840;2022-09-09T01:25:22;15.90;99.90
15328;DHT22;7764;51.430;6.840;2022-09-09T01:27:51;15.90;99.90
15328;DHT22;7764;51.430;6.840;2022-09-09T01:30:20;15.90;99.90
15328;DHT22;7764;51.430;6.840;2022-09-09T01:32:49;15.90;99.90
15328;DHT22;7764;51.430;6.840;2022-09-09T01:35:27;15.90;99.90
15328;DHT22;7764;51.430;6.840;2022-09-09T01:37:56;15.80;99.90
15328;DHT22;7764;51.430;6.840;2022-09-09T01:40:23;15.80;99.90
15328;DHT22;7764;51.430;6.840;2022-09-09T01:42:52;15.80;99.90
15328;DHT22;7764;51.430;6.840;2022-09-09T01:45:19;15.80;99.90
15328;DHT22;7764;51.430;6.840;2022-09-09T01:47:47;15.80;99.90
15328;DHT22;7764;51.430;6.840;2022-09-09T01:50:16;15.80;99.90
15328;DHT22;7764;51.430;6.840;2022-09-09T01:52:44;15.80;99.90
15328;DHT22;7764;51.430;6.840;2022-09-09T01:55:12;15.90;99.90
15328;DHT22;7764;51.430;6.840;2022-09-09T01:57:44;15.90;99.90
15328;DHT22;7764;51.430;6.840;2022-09-09T02:00:18;15.80;99.90
15328;DHT22;7764;51.430;6.840;2022-09-09T02:02:53;15.80;99.90
15328;DHT22;7764;51.430;6.840;2022-09-09T02:05:30;15.80;99.90
15328;DHT22;7764;51.430;6.840;2022-09-09T02:08:06;15.80;99.90
15328;DHT22;7764;51.430;6.840;2022-09-09T02:10:37;15.80;99.90
15328;DHT22;7764;51.430;6.840;2022-09-09T02:13:10;15.80;99.90
15328;DHT22;7764;51.430;6.840;2022-09-09T02:15:42;15.80;99.90
15328;DHT22;7764;51.430;6.840;2022-09-09T02:18:11;15.80;99.90
15328;DHT22;7764;51.430;6.840;2022-09-09T02:20:39;15.90;99.90
15328;DHT22;7764;51.430;6.840;2022-09-09T02:23:07;15.90;99.90
15328;DHT22;7764;51.430;6.840;2022-09-09T02:25:36;16.00;99.90
15328;DHT22;7764;51.430;6.840;2022-09-09T02:28:06;16.00;99.90
15328;DHT22;7764;51.430;6.840;2022-09-09T02:30:35;16.10;99.90
15328;DHT22;7764;51.430;6.840;2022-09-09T02:33:05;16.10;99.90
15328;DHT22;7764;51.430;6.840;2022-09-09T02:35:34;16.10;99.90
15328;DHT22;7764;51.430;6.840;2022-09-09T02:38:06;16.10;99.90
15328;DHT22;7764;51.430;6.840;2022-09-09T02:40:34;16.10;99.90
15328;DHT22;7764;51.430;6.840;2022-09-09T02:43:01;16.10;99.90
15328;DHT22;7764;51.430;6.840;2022-09-09T02:45:33;16.10;99.90
15328;DHT22;7764;51.430;6.840;2022-09-09T02:48:10;16.10;99.90
15328;DHT22;7764;51.430;6.840;2022-09-09T02:50:43;16.10;99.90
15328;DHT22;7764;51.430;6.840;2022-09-09T02:53:16;16.10;99.90
15328;DHT22;7764;51.430;6.840;2022-09-09T02:55:47;16.10;99.90
15328;DHT22;7764;51.430;6.840;2022-09-09T02:58:16;16.10;99.90
15328;DHT22;7764;51.430;6.840;2022-09-09T03:00:46;16.10;99.90
15328;DHT22;7764;51.430;6.840;2022-09-09T03:03:17;16.10;99.90
15328;DHT22;7764;51.430;6.840;2022-09-09T03:05:45;16.10;99.90
15328;DHT22;7764;51.430;6.840;2022-09-09T03:08:12;16.10;99.90
15328;DHT22;7764;51.430;6.840;2022-09-09T03:10:39;16.10;99.90
15328;DHT22;7764;51.430;6.840;2022-09-09T03:13:06;16.10;99.90
15328;DHT22;7764;51.430;6.840;2022-09-09T03:15:34;16.10;99.90
15328;DHT22;7764;51.430;6.840;2022-09-09T03:18:01;16.10;99.90
15328;DHT22;7764;51.430;6.840;2022-09-09T03:20:30;16.10;99.90
15328;DHT22;7764;51.430;6.840;2022-09-09T03:22:58;16.10;99.90
15328;DHT22;7764;51.430;6.840;2022-09-09T03:25:25;16.10;99.90
15328;DHT22;7764;51.430;6.840;2022-09-09T03:27:53;16.10;99.90
15328;DHT22;7764;51.430;6.840;2022-09-09T03:30:20;16.10;99.90
15328;DHT22;7764;51.430;6.840;2022-09-09T03:32:47;16.00;99.90
15328;DHT22;7764;51.430;6.840;2022-09-09T03:35:14;16.00;99.90
15328;DHT22;7764;51.430;6.840;2022-09-09T03:37:43;16.00;99.90
15328;DHT22;7764;51.430;6.840;2022-09-09T03:40:10;16.00;99.90
15328;DHT22;7764;51.430;6.840;2022-09-09T03:42:38;16.00;99.90
15328;DHT22;7764;51.430;6.840;2022-09-09T03:45:07;16.10;99.90
15328;DHT22;7764;51.430;6.840;2022-09-09T03:47:34;16.10;99.90
15328;DHT22;7764;51.430;6.840;2022-09-09T03:50:01;16.10;99.90
15328;DHT22;7764;51.430;6.840;2022-09-09T03:52:29;16.10;99.90
15328;DHT22;7764;51.430;6.840;2022-09-09T03:54:58;16.10;99.90
15328;DHT22;7764;51.430;6.840;2022-09-09T03:57:25;16.10;99.90
15328;DHT22;7764;51.430;6.840;2022-09-09T03:59:52;16.10;99.90
15328;DHT22;7764;51.430;6.840;2022-09-09T04:02:19;16.00;99.90
15328;DHT22;7764;51.430;6.840;2022-09-09T04:04:46;16.00;99.90
15328;DHT22;7764;51.430;6.840;2022-09-09T04:07:13;16.00;99.90
15328;DHT22;7764;51.430;6.840;2022-09-09T04:09:40;16.00;99.90
15328;DHT22;7764;51.430;6.840;2022-09-09T04:12:08;15.90;99.90
15328;DHT22;7764;51.430;6.840;2022-09-09T04:14:36;15.90;99.90
15328;DHT22;7764;51.430;6.840;2022-09-09T04:17:03;16.00;99.90
15328;DHT22;7764;51.430;6.840;2022-09-09T04:19:31;15.90;99.90
15328;DHT22;7764;51.430;6.840;2022-09-09T04:21:58;15.90;99.90
15328;DHT22;7764;51.430;6.840;2022-09-09T04:24:25;16.00;99.90
15328;DHT22;7764;51.430;6.840;2022-09-09T04:26:52;16.00;99.90
15328;DHT22;7764;51.430;6.840;2022-09-09T04:29:21;16.00;99.90
15328;DHT22;7764;51.430;6.840;2022-09-09T04:31:47;16.00;99.90
15328;DHT22;7764;51.430;6.840;2022-09-09T04:34:14;16.00;99.90
15328;DHT22;7764;51.430;6.840;2022-09-09T04:36:41;16.00;99.90
15328;DHT22;7764;51.430;6.840;2022-09-09T04:39:08;16.00;99.90
15328;DHT22;7764;51.430;6.840;2022-09-09T04:41:35;16.10;99.90
15328;DHT22;7764;51.430;6.840;2022-09-09T04:44:03;16.10;99.90
15328;DHT22;7764;51.430;6.840;2022-09-09T04:46:31;16.10;99.90
15328;DHT22;7764;51.430;6.840;2022-09-09T04:48:59;16.20;99.90
15328;DHT22;7764;51.430;6.840;2022-09-09T04:51:26;16.20;99.90
15328;DHT22;7764;51.430;6.840;2022-09-09T04:53:53;16.20;99.90
15328;DHT22;7764;51.430;6.840;2022-09-09T04:56:20;16.30;99.90
15328;DHT22;7764;51.430;6.840;2022-09-09T04:58:47;16.30;99.90
15328;DHT22;7764;51.430;6.840;2022-09-09T05:01:15;16.30;99.90
15328;DHT22;7764;51.430;6.840;2022-09-09T05:03:45;16.30;99.90
15328;DHT22;7764;51.430;6.840;2022-09-09T05:06:13;16.30;99.90
15328;DHT22;7764;51.430;6.840;2022-09-09T05:08:41;16.40;99.90
15328;DHT22;7764;51.430;6.840;2022-09-09T05:11:18;16.30;99.90
15328;DHT22;7764;51.430;6.840;2022-09-09T05:13:46;16.30;99.90
15328;DHT22;7764;51.430;6.840;2022-09-09T05:16:13;16.30;99.90
15328;DHT22;7764;51.430;6.840;2022-09-09T05:18:41;16.40;99.90
15328;DHT22;7764;51.430;6.840;2022-09-09T05:21:11;16.40;99.90
15328;DHT22;7764;51.430;6.840;2022-09-09T05:23:38;16.40;99.90
15328;DHT22;7764;51.430;6.840;2022-09-09T05:26:05;16.40;99.90
15328;DHT22;7764;51.430;6.840;2022-09-09T05:28:34;16.40;99.90
15328;DHT22;7764;51.430;6.840;2022-09-09T05:31:02;16.40;99.90
15328;DHT22;7764;51.430;6.840;2022-09-09T05:33:31;16.40;99.90
15328;DHT22;7764;51.430;6.840;2022-09-09T05:36:00;16.40;99.90
15328;DHT22;7764;51.430;6.840;2022-09-09T05:38:30;16.40;99.90
15328;DHT22;7764;51.430;6.840;2022-09-09T05:40:58;16.50;99.90
15328;DHT22;7764;51.430;6.840;2022-09-09T05:43:25;16.50;99.90
15328;DHT22;7764;51.430;6.840;2022-09-09T05:45:59;16.50;99.90
15328;DHT22;7764;51.430;6.840;2022-09-09T05:48:28;16.60;99.90
15328;DHT22;7764;51.430;6.840;2022-09-09T05:50:57;16.60;99.90
15328;DHT22;7764;51.430;6.840;2022-09-09T05:53:24;16.60;99.90
15328;DHT22;7764;51.430;6.840;2022-09-09T05:56:00;16.70;99.90
15328;DHT22;7764;51.430;6.840;2022-09-09T05:58:28;16.60;99.90
15328;DHT22;7764;51.430;6.840;2022-09-09T06:01:01;16.70;99.90
15328;DHT22;7764;51.430;6.840;2022-09-09T06:03:28;16.80;99.90
15328;DHT22;7764;51.430;6.840;2022-09-09T06:05:58;16.80;99.90
15328;DHT22;7764;51.430;6.840;2022-09-09T06:08:26;16.90;99.90
15328;DHT22;7764;51.430;6.840;2022-09-09T06:10:53;16.90;99.90
15328;DHT22;7764;51.430;6.840;2022-09-09T06:13:23;16.80;99.90
15328;DHT22;7764;51.430;6.840;2022-09-09T06:15:50;16.90;99.90
15328;DHT22;7764;51.430;6.840;2022-09-09T06:18:18;16.90;99.90
15328;DHT22;7764;51.430;6.840;2022-09-09T06:20:54;17.00;99.90
15328;DHT22;7764;51.430;6.840;2022-09-09T06:23:21;17.10;99.90
15328;DHT22;7764;51.430;6.840;2022-09-09T06:25:48;17.10;99.90
15328;DHT22;7764;51.430;6.840;2022-09-09T06:28:16;17.20;99.90
15328;DHT22;7764;51.430;6.840;2022-09-09T06:30:44;17.20;99.90
15328;DHT22;7764;51.430;6.840;2022-09-09T06:33:12;17.20;99.90
15328;DHT22;7764;51.430;6.840;2022-09-09T06:35:39;17.20;99.90
15328;DHT22;7764;51.430;6.840;2022-09-09T06:38:06;17.30;99.90
15328;DHT22;7764;51.430;6.840;2022-09-09T06:40:34;17.30;99.90
15328;DHT22;7764;51.430;6.840;2022-09-09T06:43:01;17.40;99.90
15328;DHT22;7764;51.430;6.840;2022-09-09T06:45:28;17.50;99.90
15328;DHT22;7764;51.430;6.840;2022-09-09T06:47:56;17.60;99.90
15328;DHT22;7764;51.430;6.840;2022-09-09T06:50:23;17.60;99.90
15328;DHT22;7764;51.430;6.840;2022-09-09T06:52:50;17.70;99.90
15328;DHT22;7764;51.430;6.840;2022-09-09T06:55:17;17.70;99.90
15328;DHT22;7764;51.430;6.840;2022-09-09T06:57:44;17.80;99.90
15328;DHT22;7764;51.430;6.840;2022-09-09T07:00:12;17.90;99.90
15328;DHT22;7764;51.430;6.840;2022-09-09T07:02:40;18.00;99.90
15328;DHT22;7764;51.430;6.840;2022-09-09T07:05:08;18.10;99.90
15328;DHT22;7764;51.430;6.840;2022-09-09T07:07:36;18.30;99.90
15328;DHT22;7764;51.430;6.840;2022-09-09T07:10:03;18.50;99.90
15328;DHT22;7764;51.430;6.840;2022-09-09T07:12:30;18.60;99.90
15328;DHT22;7764;51.430;6.840;2022-09-09T07:14:57;19.00;99.90
15328;DHT22;7764;51.430;6.840;2022-09-09T07:17:24;19.10;99.90
15328;DHT22;7764;51.430;6.840;2022-09-09T07:19:51;19.20;99.90
15328;DHT22;7764;51.430;6.840;2022-09-09T07:22:19;19.20;99.90
15328;DHT22;7764;51.430;6.840;2022-09-09T07:24:46;19.20;99.90
15328;DHT22;7764;51.430;6.840;2022-09-09T07:27:15;19.20;99.90
15328;DHT22;7764;51.430;6.840;2022-09-09T07:29:42;19.30;99.90
15328;DHT22;7764;51.430;6.840;2022-09-09T07:32:08;19.40;99.90
15328;DHT22;7764;51.430;6.840;2022-09-09T07:34:35;19.40;99.90
15328;DHT22;7764;51.430;6.840;2022-09-09T07:37:02;19.40;99.90
15328;DHT22;7764;51.430;6.840;2022-09-09T07:39:31;19.60;99.90
15328;DHT22;7764;51.430;6.840;2022-09-09T07:41:58;19.70;99.90
15328;DHT22;7764;51.430;6.840;2022-09-09T07:44:25;19.90;99.90
15328;DHT22;7764;51.430;6.840;2022-09-09T07:46:53;20.00;99.90
15328;DHT22;7764;51.430;6.840;2022-09-09T07:49:20;19.80;99.90
15328;DHT22;7764;51.430;6.840;2022-09-09T07:51:48;19.90;99.90
15328;DHT22;7764;51.430;6.840;2022-09-09T07:54:16;19.80;99.90
15328;DHT22;7764;51.430;6.840;2022-09-09T07:56:47;19.80;99.90
15328;DHT22;7764;51.430;6.840;2022-09-09T07:59:15;19.60;99.90
15328;DHT22;7764;51.430;6.840;2022-09-09T08:01:44;19.40;99.90
15328;DHT22;7764;51.430;6.840;2022-09-09T08:04:13;19.30;99.90
15328;DHT22;7764;51.430;6.840;2022-09-09T08:06:43;19.60;99.90
15328;DHT22;7764;51.430;6.840;2022-09-09T08:09:13;19.50;99.90
15328;DHT22;7764;51.430;6.840;2022-09-09T08:11:41;19.70;99.90
15328;DHT22;7764;51.430;6.840;2022-09-09T08:14:11;19.70;99.90
15328;DHT22;7764;51.430;6.840;2022-09-09T08:16:40;19.70;99.90
15328;DHT22;7764;51.430;6.840;2022-09-09T08:19:07;19.80;99.90
15328;DHT22;7764;51.430;6.840;2022-09-09T08:21:37;19.80;99.90
15328;DHT22;7764;51.430;6.840;2022-09-09T08:24:06;19.60;99.90
15328;DHT22;7764;51.430;6.840;2022-09-09T08:26:35;19.90;99.90
15328;DHT22;7764;51.430;6.840;2022-09-09T08:29:04;20.00;99.90
15328;DHT22;7764;51.430;6.840;2022-09-09T08:31:34;19.80;99.90
15328;DHT22;7764;51.430;6.840;2022-09-09T08:34:03;20.00;99.90
15328;DHT22;7764;51.430;6.840;2022-09-09T08:36:34;20.10;99.90
15328;DHT22;7764;51.430;6.840;2022-09-09T08:39:02;20.20;99.90
15328;DHT22;7764;51.430;6.840;2022-09-09T08:41:43;20.20;99.90
15328;DHT22;7764;51.430;6.840;2022-09-09T08:44:20;20.40;99.90
15328;DHT22;7764;51.430;6.840;2022-09-09T08:46:58;20.80;99.90
15328;DHT22;7764;51.430;6.840;2022-09-09T08:49:43;20.80;99.90
15328;DHT22;7764;51.430;6.840;2022-09-09T08:52:17;20.90;99.90
15328;DHT22;7764;51.430;6.840;2022-09-09T08:54:46;21.00;99.90
15328;DHT22;7764;51.430;6.840;2022-09-09T08:57:19;21.00;99.90
15328;DHT22;7764;51.430;6.840;2022-09-09T08:59:47;20.90;99.90
15328;DHT22;7764;51.430;6.840;2022-09-09T09:02:19;20.80;99.90
15328;DHT22;7764;51.430;6.840;2022-09-09T09:04:58;20.90;99.90
15328;DHT22;7764;51.430;6.840;2022-09-09T09:07:46;20.80;99.90
15328;DHT22;7764;51.430;6.840;2022-09-09T09:10:22;20.90;99.90
15328;DHT22;7764;51.430;6.840;2022-09-09T09:12:52;21.00;99.90
15328;DHT22;7764;51.430;6.840;2022-09-09T09:15:23;20.90;99.90
15328;DHT22;7764;51.430;6.840;2022-09-09T09:17:51;20.80;99.90
15328;DHT22;7764;51.430;6.840;2022-09-09T09:20:22;20.80;99.90
15328;DHT22;7764;51.430;6.840;2022-09-09T09:22:52;20.60;99.90
15328;DHT22;7764;51.430;6.840;2022-09-09T09:25:21;20.60;99.90
15328;DHT22;7764;51.430;6.840;2022-09-09T09:27:56;20.70;99.90
15328;DHT22;7764;51.430;6.840;2022-09-09T09:30:30;21.00;99.90
15328;DHT22;7764;51.430;6.840;2022-09-09T09:33:05;21.10;99.90
15328;DHT22;7764;51.430;6.840;2022-09-09T09:35:32;21.10;99.90
15328;DHT22;7764;51.430;6.840;2022-09-09T09:37:59;21.10;99.90
15328;DHT22;7764;51.430;6.840;2022-09-09T09:40:27;21.00;99.90
15328;DHT22;7764;51.430;6.840;2022-09-09T09:42:56;20.90;99.90
15328;DHT22;7764;51.430;6.840;2022-09-09T09:45:28;20.90;99.90
15328;DHT22;7764;51.430;6.840;2022-09-09T09:48:03;20.80;99.90
15328;DHT22;7764;51.430;6.840;2022-09-09T09:50:31;20.80;99.90
15328;DHT22;7764;51.430;6.840;2022-09-09T09:53:00;20.80;99.90
15328;DHT22;7764;51.430;6.840;2022-09-09T09:55:29;20.80;99.90
15328;DHT22;7764;51.430;6.840;2022-09-09T09:58:02;20.90;99.90
15328;DHT22;7764;51.430;6.840;2022-09-09T10:00:29;20.90;99.90
15328;DHT22;7764;51.430;6.840;2022-09-09T10:02:56;20.80;99.90
15328;DHT22;7764;51.430;6.840;2022-09-09T10:05:25;21.10;99.90
15328;DHT22;7764;51.430;6.840;2022-09-09T10:08:03;21.40;99.90
15328;DHT22;7764;51.430;6.840;2022-09-09T10:10:40;21.60;99.90
15328;DHT22;7764;51.430;6.840;2022-09-09T10:13:13;21.60;99.90
15328;DHT22;7764;51.430;6.840;2022-09-09T10:15:48;21.80;99.90
15328;DHT22;7764;51.430;6.840;2022-09-09T10:18:26;22.00;99.90
15328;DHT22;7764;51.430;6.840;2022-09-09T10:21:04;21.90;99.90
15328;DHT22;7764;51.430;6.840;2022-09-09T10:23:46;21.90;99.90
15328;DHT22;7764;51.430;6.840;2022-09-09T10:26:25;22.00;99.90
15328;DHT22;7764;51.430;6.840;2022-09-09T10:29:07;21.90;99.90
15328;DHT22;7764;51.430;6.840;2022-09-09T10:31:43;21.60;99.90
15328;DHT22;7764;51.430;6.840;2022-09-09T10:34:22;21.60;99.90
15328;DHT22;7764;51.430;6.840;2022-09-09T10:36:54;21.60;99.90
15328;DHT22;7764;51.430;6.840;2022-09-09T10:39:33;21.70;99.90
15328;DHT22;7764;51.430;6.840;2022-09-09T10:42:05;21.70;99.90
15328;DHT22;7764;51.430;6.840;2022-09-09T10:44:53;21.70;99.90
15328;DHT22;7764;51.430;6.840;2022-09-09T10:47:39;21.50;99.90
15328;DHT22;7764;51.430;6.840;2022-09-09T10:50:34;21.20;99.90
15328;DHT22;7764;51.430;6.840;2022-09-09T10:53:13;21.10;99.90
15328;DHT22;7764;51.430;6.840;2022-09-09T10:55:43;21.10;99.90
15328;DHT22;7764;51.430;6.840;2022-09-09T10:58:14;21.10;99.90
15328;DHT22;7764;51.430;6.840;2022-09-09T11:00:43;21.20;99.90
15328;DHT22;7764;51.430;6.840;2022-09-09T11:03:18;21.20;99.90
15328;DHT22;7764;51.430;6.840;2022-09-09T11:05:49;21.50;99.90
15328;DHT22;7764;51.430;6.840;2022-09-09T11:08:21;21.50;99.90
15328;DHT22;7764;51.430;6.840;2022-09-09T11:10:53;21.70;99.90
15328;DHT22;7764;51.430;6.840;2022-09-09T11:13:26;21.80;99.90
15328;DHT22;7764;51.430;6.840;2022-09-09T11:16:00;22.10;99.90
15328;DHT22;7764;51.430;6.840;2022-09-09T11:18:29;22.20;99.90
15328;DHT22;7764;51.430;6.840;2022-09-09T11:21:00;22.20;99.90
15328;DHT22;7764;51.430;6.840;2022-09-09T11:23:37;22.10;99.90
15328;DHT22;7764;51.430;6.840;2022-09-09T11:26:07;21.80;99.90
15328;DHT22;7764;51.430;6.840;2022-09-09T11:28:47;21.80;99.90
15328;DHT22;7764;51.430;6.840;2022-09-09T11:31:38;21.90;99.90
15328;DHT22;7764;51.430;6.840;2022-09-09T11:34:26;21.90;99.90
15328;DHT22;7764;51.430;6.840;2022-09-09T11:37:10;21.90;99.90
15328;DHT22;7764;51.430;6.840;2022-09-09T11:40:00;22.10;99.90
15328;DHT22;7764;51.430;6.840;2022-09-09T11:42:29;22.20;99.90
15328;DHT22;7764;51.430;6.840;2022-09-09T11:44:56;22.20;99.90
15328;DHT22;7764;51.430;6.840;2022-09-09T11:47:25;22.30;99.90
15328;DHT22;7764;51.430;6.840;2022-09-09T11:49:55;22.30;99.90
15328;DHT22;7764;51.430;6.840;2022-09-09T11:52:37;22.20;99.90
15328;DHT22;7764;51.430;6.840;2022-09-09T11:55:11;22.10;99.90
15328;DHT22;7764;51.430;6.840;2022-09-09T11:57:38;21.90;99.90
15328;DHT22;7764;51.430;6.840;2022-09-09T12:00:06;22.10;99.90
15328;DHT22;7764;51.430;6.840;2022-09-09T12:02:33;22.20;99.90
15328;DHT22;7764;51.430;6.840;2022-09-09T12:05:05;22.30;99.90
15328;DHT22;7764;51.430;6.840;2022-09-09T12:07:36;22.50;99.90
15328;DHT22;7764;51.430;6.840;2022-09-09T12:10:22;22.50;99.90
15328;DHT22;7764;51.430;6.840;2022-09-09T12:12:50;22.40;99.90
15328;DHT22;7764;51.430;6.840;2022-09-09T12:15:20;22.40;99.90
15328;DHT22;7764;51.430;6.840;2022-09-09T12:17:49;22.10;99.90
15328;DHT22;7764;51.430;6.840;2022-09-09T12:20:19;21.90;99.90
15328;DHT22;7764;51.430;6.840;2022-09-09T12:22:58;21.80;99.90
15328;DHT22;7764;51.430;6.840;2022-09-09T12:25:36;21.50;99.90
15328;DHT22;7764;51.430;6.840;2022-09-09T12:28:12;21.70;99.90
15328;DHT22;7764;51.430;6.840;2022-09-09T12:30:48;21.90;99.90
15328;DHT22;7764;51.430;6.840;2022-09-09T12:33:18;22.10;99.90
15328;DHT22;7764;51.430;6.840;2022-09-09T12:35:49;22.10;99.90
15328;DHT22;7764;51.430;6.840;2022-09-09T12:38:22;22.10;99.90
15328;DHT22;7764;51.430;6.840;2022-09-09T12:40:56;22.00;99.90
15328;DHT22;7764;51.430;6.840;2022-09-09T12:43:25;21.90;99.90
15328;DHT22;7764;51.430;6.840;2022-09-09T12:45:55;21.60;99.90
15328;DHT22;7764;51.430;6.840;2022-09-09T12:48:28;21.30;99.90
15328;DHT22;7764;51.430;6.840;2022-09-09T12:50:57;20.80;99.90
15328;DHT22;7764;51.430;6.840;2022-09-09T12:53:27;20.40;99.90
15328;DHT22;7764;51.430;6.840;2022-09-09T12:55:59;19.90;99.90
15328;DHT22;7764;51.430;6.840;2022-09-09T12:58:27;19.70;99.90
15328;DHT22;7764;51.430;6.840;2022-09-09T13:00:59;19.30;99.90
15328;DHT22;7764;51.430;6.840;2022-09-09T13:03:26;19.20;99.90
15328;DHT22;7764;51.430;6.840;2022-09-09T13:05:57;19.10;99.90
15328;DHT22;7764;51.430;6.840;2022-09-09T13:08:25;18.90;99.90
15328;DHT22;7764;51.430;6.840;2022-09-09T13:10:54;18.70;99.90
15328;DHT22;7764;51.430;6.840;2022-09-09T13:13:27;18.70;99.90
15328;DHT22;7764;51.430;6.840;2022-09-09T13:15:57;18.70;99.90
15328;DHT22;7764;51.430;6.840;2022-09-09T13:18:28;18.80;99.90
15328;DHT22;7764;51.430;6.840;2022-09-09T13:20:57;18.90;99.90
15328;DHT22;7764;51.430;6.840;2022-09-09T13:23:27;18.90;99.90
15328;DHT22;7764;51.430;6.840;2022-09-09T13:25:56;19.10;99.90
15328;DHT22;7764;51.430;6.840;2022-09-09T13:28:26;19.20;99.90
15328;DHT22;7764;51.430;6.840;2022-09-09T13:30:57;19.30;99.90
15328;DHT22;7764;51.430;6.840;2022-09-09T13:33:31;19.30;99.90
15328;DHT22;7764;51.430;6.840;2022-09-09T13:36:00;19.40;99.90
15328;DHT22;7764;51.430;6.840;2022-09-09T13:38:30;19.50;99.90
15328;DHT22;7764;51.430;6.840;2022-09-09T13:40:59;19.50;99.90
15328;DHT22;7764;51.430;6.840;2022-09-09T13:43:30;19.50;99.90
15328;DHT22;7764;51.430;6.840;2022-09-09T13:46:00;19.60;99.90
15328;DHT22;7764;51.430;6.840;2022-09-09T13:48:27;19.60;99.90
15328;DHT22;7764;51.430;6.840;2022-09-09T13:51:01;19.70;99.90
15328;DHT22;7764;51.430;6.840;2022-09-09T13:53:28;19.70;99.90
15328;DHT22;7764;51.430;6.840;2022-09-09T13:55:56;19.80;99.90
15328;DHT22;7764;51.430;6.840;2022-09-09T13:58:23;20.00;99.90
15328;DHT22;7764;51.430;6.840;2022-09-09T14:00:52;20.10;99.90
15328;DHT22;7764;51.430;6.840;2022-09-09T14:03:20;20.20;99.90
15328;DHT22;7764;51.430;6.840;2022-09-09T14:05:47;20.30;99.90
15328;DHT22;7764;51.430;6.840;2022-09-09T14:08:26;20.20;99.90
15328;DHT22;7764;51.430;6.840;2022-09-09T14:10:54;20.40;99.90
15328;DHT22;7764;51.430;6.840;2022-09-09T14:13:24;20.40;99.90
15328;DHT22;7764;51.430;6.840;2022-09-09T14:15:53;20.30;99.90
15328;DHT22;7764;51.430;6.840;2022-09-09T14:18:20;20.50;99.90
15328;DHT22;7764;51.430;6.840;2022-09-09T14:20:47;20.70;99.90
15328;DHT22;7764;51.430;6.840;2022-09-09T14:23:16;20.70;99.90
15328;DHT22;7764;51.430;6.840;2022-09-09T14:25:44;20.90;99.90
15328;DHT22;7764;51.430;6.840;2022-09-09T14:28:13;21.00;99.90
15328;DHT22;7764;51.430;6.840;2022-09-09T14:30:41;21.00;99.90
15328;DHT22;7764;51.430;6.840;2022-09-09T14:33:13;20.80;99.90
15328;DHT22;7764;51.430;6.840;2022-09-09T14:35:43;20.90;99.90
15328;DHT22;7764;51.430;6.840;2022-09-09T14:38:10;20.70;99.90
15328;DHT22;7764;51.430;6.840;2022-09-09T14:40:38;20.60;99.90
15328;DHT22;7764;51.430;6.840;2022-09-09T14:43:05;20.60;99.90
15328;DHT22;7764;51.430;6.840;2022-09-09T14:45:32;20.50;99.90
15328;DHT22;7764;51.430;6.840;2022-09-09T14:47:59;20.00;99.90
15328;DHT22;7764;51.430;6.840;2022-09-09T14:50:27;19.10;99.90
15328;DHT22;7764;51.430;6.840;2022-09-09T14:52:54;18.80;99.90
15328;DHT22;7764;51.430;6.840;2022-09-09T14:55:21;18.40;99.90
15328;DHT22;7764;51.430;6.840;2022-09-09T14:57:48;18.20;99.90
15328;DHT22;7764;51.430;6.840;2022-09-09T15:00:15;18.10;99.90
15328;DHT22;7764;51.430;6.840;2022-09-09T15:02:42;18.10;99.90
15328;DHT22;7764;51.430;6.840;2022-09-09T15:05:09;18.10;99.90
15328;DHT22;7764;51.430;6.840;2022-09-09T15:07:37;18.00;99.90
15328;DHT22;7764;51.430;6.840;2022-09-09T15:10:05;18.00;99.90
15328;DHT22;7764;51.430;6.840;2022-09-09T15:12:32;17.90;99.90
15328;DHT22;7764;51.430;6.840;2022-09-09T15:15:01;18.00;99.90
15328;DHT22;7764;51.430;6.840;2022-09-09T15:17:28;17.90;99.90
15328;DHT22;7764;51.430;6.840;2022-09-09T15:19:55;17.70;99.90
15328;DHT22;7764;51.430;6.840;2022-09-09T15:22:22;17.80;99.90
15328;DHT22;7764;51.430;6.840;2022-09-09T15:24:51;17.80;99.90
15328;DHT22;7764;51.430;6.840;2022-09-09T15:27:18;17.80;99.90
15328;DHT22;7764;51.430;6.840;2022-09-09T15:29:45;17.70;99.90
15328;DHT22;7764;51.430;6.840;2022-09-09T15:32:12;17.60;99.90
15328;DHT22;7764;51.430;6.840;2022-09-09T15:34:39;17.60;99.90
15328;DHT22;7764;51.430;6.840;2022-09-09T15:37:05;17.70;99.90
15328;DHT22;7764;51.430;6.840;2022-09-09T15:39:33;17.70;99.90
15328;DHT22;7764;51.430;6.840;2022-09-09T15:42:01;17.70;99.90
15328;DHT22;7764;51.430;6.840;2022-09-09T15:44:28;17.80;99.90
15328;DHT22;7764;51.430;6.840;2022-09-09T15:46:55;17.70;99.90
15328;DHT22;7764;51.430;6.840;2022-09-09T15:49:23;17.80;99.90
15328;DHT22;7764;51.430;6.840;2022-09-09T15:51:52;17.80;99.90
15328;DHT22;7764;51.430;6.840;2022-09-09T15:54:22;18.00;99.90
15328;DHT22;7764;51.430;6.840;2022-09-09T15:56:51;18.00;99.90
15328;DHT22;7764;51.430;6.840;2022-09-09T15:59:21;18.10;99.90
15328;DHT22;7764;51.430;6.840;2022-09-09T16:01:48;18.20;99.90
15328;DHT22;7764;51.430;6.840;2022-09-09T16:04:17;18.10;99.90
15328;DHT22;7764;51.430;6.840;2022-09-09T16:06:49;18.20;99.90